sensor_id;sensor_type;location;lat;lon;timestamp;P1;durP1;ratioP1;P2;durP2;ratioP2
76320;SDS011;65132;52.088;5.402;2024-02-21T00:01:14;8.50;;;2.50;;
76320;SDS011;65132;52.088;5.402;2024-02-21T00:03:40;7.18;;;2.28;;
76320;SDS011;65132;52.088;5.402;2024-02-21T00:06:07;7.13;;;2.33;;
76320;SDS011;65132;52.088;5.402;2024-02-21T00:11:04;7.53;;;2.10;;
76320;SDS011;65132;52.088;5.402;2024-02-21T00:13:31;6.82;;;2.38;;
76320;SDS011;65132;52.088;5.402;2024-02-21T00:15:59;5.63;;;1.95;;
76320;SDS011;65132;52.088;5.402;2024-02-21T00:18:26;9.85;;;2.78;;
76320;SDS011;65132;52.088;5.402;2024-02-21T00:20:55;7.20;;;2.00;;
76320;SDS011;65132;52.088;5.402;2024-02-21T00:23:22;8.13;;;2.30;;
76320;SDS011;65132;52.088;5.402;2024-02-21T00:25:48;9.45;;;2.22;;
76320;SDS011;65132;52.088;5.402;2024-02-21T00:28:15;7.20;;;2.50;;
76320;SDS011;65132;52.088;5.402;2024-02-21T00:30:41;13.23;;;2.65;;
76320;SDS011;65132;52.088;5.402;2024-02-21T00:33:08;6.45;;;2.05;;
76320;SDS011;65132;52.088;5.402;2024-02-21T00:35:34;7.88;;;2.45;;
76320;SDS011;65132;52.088;5.402;2024-02-21T00:38:00;10.90;;;2.28;;
76320;SDS011;65132;52.088;5.402;2024-02-21T00:40:27;9.93;;;2.55;;
76320;SDS011;65132;52.088;5.402;2024-02-21T00:42:53;8.80;;;2.15;;
76320;SDS011;65132;52.088;5.402;2024-02-21T00:45:20;6.03;;;2.03;;
76320;SDS011;65132;52.088;5.402;2024-02-21T00:47:46;10.10;;;2.05;;
76320;SDS011;65132;52.088;5.402;2024-02-21T00:50:13;9.07;;;2.60;;
76320;SDS011;65132;52.088;5.402;2024-02-21T00:52:39;11.32;;;2.90;;
76320;SDS011;65132;52.088;5.402;2024-02-21T00:55:06;10.25;;;2.47;;
76320;SDS011;65132;52.088;5.402;2024-02-21T00:57:32;5.97;;;1.80;;
76320;SDS011;65132;52.088;5.402;2024-02-21T00:59:58;5.47;;;2.13;;
76320;SDS011;65132;52.088;5.402;2024-02-21T01:02:25;7.50;;;2.08;;
76320;SDS011;65132;52.088;5.402;2024-02-21T01:04:52;8.48;;;1.90;;
76320;SDS011;65132;52.088;5.402;2024-02-21T01:07:19;8.05;;;2.03;;
76320;SDS011;65132;52.088;5.402;2024-02-21T01:09:45;9.85;;;2.20;;
76320;SDS011;65132;52.088;5.402;2024-02-21T01:12:11;10.07;;;2.40;;
76320;SDS011;65132;52.088;5.402;2024-02-21T01:14:38;4.47;;;2.20;;
76320;SDS011;65132;52.088;5.402;2024-02-21T01:17:04;8.70;;;2.83;;
76320;SDS011;65132;52.088;5.402;2024-02-21T01:19:31;9.98;;;2.60;;
76320;SDS011;65132;52.088;5.402;2024-02-21T01:21:58;7.65;;;2.13;;
76320;SDS011;65132;52.088;5.402;2024-02-21T01:24:24;8.85;;;2.60;;
76320;SDS011;65132;52.088;5.402;2024-02-21T01:26:50;8.23;;;2.25;;
76320;SDS011;65132;52.088;5.402;2024-02-21T01:29:17;7.82;;;2.50;;
76320;SDS011;65132;52.088;5.402;2024-02-21T01:31:43;7.75;;;2.45;;
76320;SDS011;65132;52.088;5.402;2024-02-21T01:34:12;5.13;;;2.40;;
76320;SDS011;65132;52.088;5.402;2024-02-21T01:36:38;11.77;;;2.60;;
76320;SDS011;65132;52.088;5.402;2024-02-21T01:39:05;8.75;;;2.30;;
76320;SDS011;65132;52.088;5.402;2024-02-21T01:41:31;5.93;;;1.90;;
76320;SDS011;65132;52.088;5.402;2024-02-21T01:43:58;13.40;;;2.58;;
76320;SDS011;65132;52.088;5.402;2024-02-21T01:46:24;8.05;;;2.38;;
76320;SDS011;65132;52.088;5.402;2024-02-21T01:48:51;9.32;;;2.72;;
76320;SDS011;65132;52.088;5.402;2024-02-21T01:51:18;8.55;;;2.83;;
76320;SDS011;65132;52.088;5.402;2024-02-21T01:53:45;8.10;;;2.33;;
76320;SDS011;65132;52.088;5.402;2024-02-21T01:56:12;7.70;;;2.58;;
76320;SDS011;65132;52.088;5.402;2024-02-21T01:58:39;7.43;;;2.53;;
76320;SDS011;65132;52.088;5.402;2024-02-21T02:01:06;8.90;;;2.53;;
76320;SDS011;65132;52.088;5.402;2024-02-21T02:03:33;9.23;;;2.78;;
76320;SDS011;65132;52.088;5.402;2024-02-21T02:05:59;7.30;;;2.03;;
76320;SDS011;65132;52.088;5.402;2024-02-21T02:08:26;9.50;;;2.40;;
76320;SDS011;65132;52.088;5.402;2024-02-21T02:10:52;10.00;;;2.20;;
76320;SDS011;65132;52.088;5.402;2024-02-21T02:13:22;10.63;;;2.75;;
76320;SDS011;65132;52.088;5.402;2024-02-21T02:15:49;9.90;;;2.13;;
76320;SDS011;65132;52.088;5.402;2024-02-21T02:18:17;6.82;;;2.45;;
76320;SDS011;65132;52.088;5.402;2024-02-21T02:20:48;7.88;;;2.55;;
76320;SDS011;65132;52.088;5.402;2024-02-21T02:23:23;12.73;;;2.80;;
76320;SDS011;65132;52.088;5.402;2024-02-21T02:25:49;9.25;;;2.63;;
76320;SDS011;65132;52.088;5.402;2024-02-21T02:28:16;10.10;;;2.63;;
76320;SDS011;65132;52.088;5.402;2024-02-21T02:30:43;7.57;;;3.47;;
76320;SDS011;65132;52.088;5.402;2024-02-21T02:33:09;6.05;;;2.45;;
76320;SDS011;65132;52.088;5.402;2024-02-21T02:35:36;10.57;;;2.47;;
76320;SDS011;65132;52.088;5.402;2024-02-21T02:38:02;7.53;;;2.47;;
76320;SDS011;65132;52.088;5.402;2024-02-21T02:40:31;6.88;;;2.80;;
76320;SDS011;65132;52.088;5.402;2024-02-21T02:42:57;10.45;;;2.92;;
76320;SDS011;65132;52.088;5.402;2024-02-21T02:45:24;8.82;;;2.70;;
76320;SDS011;65132;52.088;5.402;2024-02-21T02:47:50;14.00;;;3.00;;
76320;SDS011;65132;52.088;5.402;2024-02-21T02:50:16;10.88;;;2.75;;
76320;SDS011;65132;52.088;5.402;2024-02-21T02:52:43;9.43;;;2.40;;
76320;SDS011;65132;52.088;5.402;2024-02-21T02:55:09;12.02;;;2.72;;
76320;SDS011;65132;52.088;5.402;2024-02-21T02:57:36;5.75;;;1.95;;
76320;SDS011;65132;52.088;5.402;2024-02-21T03:00:02;8.63;;;2.55;;
76320;SDS011;65132;52.088;5.402;2024-02-21T03:02:29;8.73;;;2.25;;
76320;SDS011;65132;52.088;5.402;2024-02-21T03:04:55;7.05;;;2.78;;
76320;SDS011;65132;52.088;5.402;2024-02-21T03:07:22;8.40;;;2.53;;
76320;SDS011;65132;52.088;5.402;2024-02-21T03:09:48;8.57;;;2.42;;
76320;SDS011;65132;52.088;5.402;2024-02-21T03:12:14;11.00;;;2.80;;
76320;SDS011;65132;52.088;5.402;2024-02-21T03:14:41;7.15;;;2.75;;
76320;SDS011;65132;52.088;5.402;2024-02-21T03:17:09;7.13;;;2.67;;
76320;SDS011;65132;52.088;5.402;2024-02-21T03:19:36;10.30;;;2.75;;
76320;SDS011;65132;52.088;5.402;2024-02-21T03:22:02;9.57;;;3.00;;
76320;SDS011;65132;52.088;5.402;2024-02-21T03:24:31;10.23;;;3.00;;
76320;SDS011;65132;52.088;5.402;2024-02-21T03:26:58;11.60;;;2.92;;
76320;SDS011;65132;52.088;5.402;2024-02-21T03:29:25;10.93;;;3.30;;
76320;SDS011;65132;52.088;5.402;2024-02-21T03:31:51;9.85;;;2.95;;
76320;SDS011;65132;52.088;5.402;2024-02-21T03:34:17;12.55;;;3.00;;
76320;SDS011;65132;52.088;5.402;2024-02-21T03:36:44;8.20;;;2.75;;
76320;SDS011;65132;52.088;5.402;2024-02-21T03:39:10;12.50;;;2.92;;
76320;SDS011;65132;52.088;5.402;2024-02-21T03:41:37;7.93;;;2.70;;
76320;SDS011;65132;52.088;5.402;2024-02-21T03:44:03;5.35;;;2.10;;
76320;SDS011;65132;52.088;5.402;2024-02-21T03:46:30;13.93;;;3.22;;
76320;SDS011;65132;52.088;5.402;2024-02-21T03:48:58;7.75;;;2.75;;
76320;SDS011;65132;52.088;5.402;2024-02-21T03:51:25;7.75;;;2.63;;
76320;SDS011;65132;52.088;5.402;2024-02-21T03:53:51;7.95;;;2.85;;
76320;SDS011;65132;52.088;5.402;2024-02-21T03:56:18;10.30;;;2.67;;
76320;SDS011;65132;52.088;5.402;2024-02-21T03:58:44;10.85;;;2.88;;
76320;SDS011;65132;52.088;5.402;2024-02-21T04:01:11;10.88;;;3.03;;
76320;SDS011;65132;52.088;5.402;2024-02-21T04:03:37;10.65;;;3.17;;
76320;SDS011;65132;52.088;5.402;2024-02-21T04:06:04;9.50;;;2.88;;
76320;SDS011;65132;52.088;5.402;2024-02-21T04:08:30;8.80;;;2.90;;
76320;SDS011;65132;52.088;5.402;2024-02-21T04:10:57;10.25;;;2.83;;
76320;SDS011;65132;52.088;5.402;2024-02-21T04:13:23;7.63;;;3.42;;
76320;SDS011;65132;52.088;5.402;2024-02-21T04:15:49;9.52;;;3.00;;
76320;SDS011;65132;52.088;5.402;2024-02-21T04:18:17;9.38;;;3.75;;
76320;SDS011;65132;52.088;5.402;2024-02-21T04:20:47;9.60;;;2.60;;
76320;SDS011;65132;52.088;5.402;2024-02-21T04:23:13;10.85;;;3.10;;
76320;SDS011;65132;52.088;5.402;2024-02-21T04:25:39;11.48;;;3.53;;
76320;SDS011;65132;52.088;5.402;2024-02-21T04:28:06;7.80;;;2.28;;
76320;SDS011;65132;52.088;5.402;2024-02-21T04:30:32;9.73;;;3.40;;
76320;SDS011;65132;52.088;5.402;2024-02-21T04:32:59;12.90;;;3.03;;
76320;SDS011;65132;52.088;5.402;2024-02-21T04:35:25;8.40;;;2.47;;
76320;SDS011;65132;52.088;5.402;2024-02-21T04:37:51;7.68;;;3.08;;
76320;SDS011;65132;52.088;5.402;2024-02-21T04:40:18;8.95;;;3.75;;
76320;SDS011;65132;52.088;5.402;2024-02-21T04:42:46;7.10;;;2.58;;
76320;SDS011;65132;52.088;5.402;2024-02-21T04:45:13;8.02;;;2.78;;
76320;SDS011;65132;52.088;5.402;2024-02-21T04:47:40;10.00;;;3.15;;
76320;SDS011;65132;52.088;5.402;2024-02-21T04:50:06;6.50;;;2.30;;
76320;SDS011;65132;52.088;5.402;2024-02-21T04:52:33;10.88;;;3.03;;
76320;SDS011;65132;52.088;5.402;2024-02-21T04:54:59;8.52;;;2.78;;
76320;SDS011;65132;52.088;5.402;2024-02-21T04:57:25;8.38;;;2.63;;
76320;SDS011;65132;52.088;5.402;2024-02-21T04:59:52;11.85;;;3.00;;
76320;SDS011;65132;52.088;5.402;2024-02-21T05:02:18;9.68;;;2.95;;
76320;SDS011;65132;52.088;5.402;2024-02-21T05:04:45;11.70;;;3.60;;
76320;SDS011;65132;52.088;5.402;2024-02-21T05:07:12;11.98;;;3.80;;
76320;SDS011;65132;52.088;5.402;2024-02-21T05:09:38;7.22;;;3.03;;
76320;SDS011;65132;52.088;5.402;2024-02-21T05:12:04;11.98;;;4.20;;
76320;SDS011;65132;52.088;5.402;2024-02-21T05:14:31;8.85;;;4.47;;
76320;SDS011;65132;52.088;5.402;2024-02-21T05:16:57;11.52;;;3.85;;
76320;SDS011;65132;52.088;5.402;2024-02-21T05:19:23;13.05;;;3.97;;
76320;SDS011;65132;52.088;5.402;2024-02-21T05:21:51;11.93;;;4.35;;
76320;SDS011;65132;52.088;5.402;2024-02-21T05:24:17;13.05;;;4.28;;
76320;SDS011;65132;52.088;5.402;2024-02-21T05:26:44;9.65;;;3.33;;
76320;SDS011;65132;52.088;5.402;2024-02-21T05:29:11;8.43;;;3.03;;
76320;SDS011;65132;52.088;5.402;2024-02-21T05:34:21;8.38;;;3.90;;
76320;SDS011;65132;52.088;5.402;2024-02-21T05:36:48;8.95;;;4.03;;
76320;SDS011;65132;52.088;5.402;2024-02-21T05:39:15;10.27;;;4.05;;
76320;SDS011;65132;52.088;5.402;2024-02-21T05:41:42;9.43;;;3.47;;
76320;SDS011;65132;52.088;5.402;2024-02-21T05:44:08;10.43;;;4.05;;
76320;SDS011;65132;52.088;5.402;2024-02-21T05:46:34;9.20;;;3.00;;
76320;SDS011;65132;52.088;5.402;2024-02-21T05:49:03;11.55;;;3.97;;
76320;SDS011;65132;52.088;5.402;2024-02-21T05:51:33;9.98;;;3.63;;
76320;SDS011;65132;52.088;5.402;2024-02-21T05:53:59;10.25;;;3.47;;
76320;SDS011;65132;52.088;5.402;2024-02-21T05:56:26;9.50;;;3.53;;
76320;SDS011;65132;52.088;5.402;2024-02-21T05:58:52;9.57;;;3.58;;
76320;SDS011;65132;52.088;5.402;2024-02-21T06:01:19;12.05;;;4.72;;
76320;SDS011;65132;52.088;5.402;2024-02-21T06:03:46;11.35;;;3.65;;
76320;SDS011;65132;52.088;5.402;2024-02-21T06:06:12;12.10;;;4.85;;
76320;SDS011;65132;52.088;5.402;2024-02-21T06:08:39;12.13;;;4.78;;
76320;SDS011;65132;52.088;5.402;2024-02-21T06:11:05;8.57;;;4.43;;
76320;SDS011;65132;52.088;5.402;2024-02-21T06:13:32;12.82;;;4.20;;
76320;SDS011;65132;52.088;5.402;2024-02-21T06:15:58;8.82;;;3.58;;
76320;SDS011;65132;52.088;5.402;2024-02-21T06:18:25;10.93;;;4.35;;
76320;SDS011;65132;52.088;5.402;2024-02-21T06:20:51;16.55;;;5.65;;
76320;SDS011;65132;52.088;5.402;2024-02-21T06:23:18;15.07;;;5.63;;
76320;SDS011;65132;52.088;5.402;2024-02-21T06:25:44;14.05;;;5.75;;
76320;SDS011;65132;52.088;5.402;2024-02-21T06:28:11;11.88;;;5.25;;
76320;SDS011;65132;52.088;5.402;2024-02-21T06:30:37;14.30;;;5.35;;
76320;SDS011;65132;52.088;5.402;2024-02-21T06:33:03;16.08;;;6.72;;
76320;SDS011;65132;52.088;5.402;2024-02-21T06:35:30;15.85;;;5.63;;
76320;SDS011;65132;52.088;5.402;2024-02-21T06:37:58;14.25;;;6.25;;
76320;SDS011;65132;52.088;5.402;2024-02-21T06:40:24;22.75;;;7.18;;
76320;SDS011;65132;52.088;5.402;2024-02-21T06:42:51;16.27;;;6.35;;
76320;SDS011;65132;52.088;5.402;2024-02-21T06:45:17;25.13;;;8.32;;
76320;SDS011;65132;52.088;5.402;2024-02-21T06:47:51;18.45;;;7.00;;
76320;SDS011;65132;52.088;5.402;2024-02-21T06:50:17;21.38;;;7.45;;
76320;SDS011;65132;52.088;5.402;2024-02-21T06:52:44;19.30;;;7.55;;
76320;SDS011;65132;52.088;5.402;2024-02-21T06:55:10;15.43;;;6.60;;
76320;SDS011;65132;52.088;5.402;2024-02-21T06:57:37;20.95;;;8.50;;
76320;SDS011;65132;52.088;5.402;2024-02-21T07:00:03;19.02;;;6.78;;
76320;SDS011;65132;52.088;5.402;2024-02-21T07:02:29;20.83;;;8.75;;
76320;SDS011;65132;52.088;5.402;2024-02-21T07:04:56;20.02;;;7.28;;
76320;SDS011;65132;52.088;5.402;2024-02-21T07:07:23;20.40;;;9.50;;
76320;SDS011;65132;52.088;5.402;2024-02-21T07:09:49;22.48;;;8.02;;
76320;SDS011;65132;52.088;5.402;2024-02-21T07:12:15;16.50;;;7.32;;
76320;SDS011;65132;52.088;5.402;2024-02-21T07:14:44;18.30;;;7.40;;
76320;SDS011;65132;52.088;5.402;2024-02-21T07:17:13;20.20;;;7.32;;
76320;SDS011;65132;52.088;5.402;2024-02-21T07:19:40;19.23;;;6.32;;
76320;SDS011;65132;52.088;5.402;2024-02-21T07:22:06;16.73;;;6.78;;
76320;SDS011;65132;52.088;5.402;2024-02-21T07:24:32;14.32;;;5.28;;
76320;SDS011;65132;52.088;5.402;2024-02-21T07:26:59;14.32;;;4.97;;
76320;SDS011;65132;52.088;5.402;2024-02-21T07:29:26;15.35;;;6.45;;
76320;SDS011;65132;52.088;5.402;2024-02-21T07:31:52;7.25;;;3.50;;
76320;SDS011;65132;52.088;5.402;2024-02-21T07:34:19;11.80;;;4.95;;
76320;SDS011;65132;52.088;5.402;2024-02-21T07:36:46;10.55;;;4.60;;
76320;SDS011;65132;52.088;5.402;2024-02-21T07:39:12;10.73;;;4.28;;
76320;SDS011;65132;52.088;5.402;2024-02-21T07:41:38;14.93;;;5.95;;
76320;SDS011;65132;52.088;5.402;2024-02-21T07:44:05;12.18;;;4.88;;
76320;SDS011;65132;52.088;5.402;2024-02-21T07:46:31;14.93;;;5.85;;
76320;SDS011;65132;52.088;5.402;2024-02-21T07:48:58;13.23;;;5.65;;
76320;SDS011;65132;52.088;5.402;2024-02-21T07:51:27;16.00;;;5.47;;
76320;SDS011;65132;52.088;5.402;2024-02-21T07:53:53;14.95;;;5.05;;
76320;SDS011;65132;52.088;5.402;2024-02-21T07:56:20;14.77;;;5.07;;
76320;SDS011;65132;52.088;5.402;2024-02-21T07:58:46;15.18;;;6.00;;
76320;SDS011;65132;52.088;5.402;2024-02-21T08:01:18;18.05;;;5.72;;
76320;SDS011;65132;52.088;5.402;2024-02-21T08:03:44;12.55;;;4.95;;
76320;SDS011;65132;52.088;5.402;2024-02-21T08:06:11;17.15;;;5.10;;
76320;SDS011;65132;52.088;5.402;2024-02-21T08:08:38;12.88;;;4.75;;
76320;SDS011;65132;52.088;5.402;2024-02-21T08:11:04;15.13;;;5.97;;
76320;SDS011;65132;52.088;5.402;2024-02-21T08:13:33;11.32;;;4.25;;
76320;SDS011;65132;52.088;5.402;2024-02-21T08:15:59;12.80;;;5.78;;
76320;SDS011;65132;52.088;5.402;2024-02-21T08:18:26;15.38;;;6.65;;
76320;SDS011;65132;52.088;5.402;2024-02-21T08:20:52;12.40;;;4.40;;
76320;SDS011;65132;52.088;5.402;2024-02-21T08:23:19;14.80;;;5.63;;
76320;SDS011;65132;52.088;5.402;2024-02-21T08:25:46;15.88;;;5.82;;
76320;SDS011;65132;52.088;5.402;2024-02-21T08:28:13;13.02;;;4.45;;
76320;SDS011;65132;52.088;5.402;2024-02-21T08:30:39;10.57;;;4.53;;
76320;SDS011;65132;52.088;5.402;2024-02-21T08:33:06;14.18;;;5.53;;
76320;SDS011;65132;52.088;5.402;2024-02-21T08:35:32;14.77;;;6.32;;
76320;SDS011;65132;52.088;5.402;2024-02-21T08:37:59;15.93;;;5.47;;
76320;SDS011;65132;52.088;5.402;2024-02-21T08:40:25;15.25;;;6.82;;
76320;SDS011;65132;52.088;5.402;2024-02-21T08:42:52;11.65;;;4.75;;
76320;SDS011;65132;52.088;5.402;2024-02-21T08:45:18;17.10;;;6.10;;
76320;SDS011;65132;52.088;5.402;2024-02-21T08:47:44;10.32;;;4.18;;
76320;SDS011;65132;52.088;5.402;2024-02-21T08:50:12;11.80;;;4.70;;
76320;SDS011;65132;52.088;5.402;2024-02-21T08:52:53;15.82;;;5.68;;
76320;SDS011;65132;52.088;5.402;2024-02-21T08:55:20;13.77;;;5.05;;
76320;SDS011;65132;52.088;5.402;2024-02-21T08:57:46;17.30;;;6.68;;
76320;SDS011;65132;52.088;5.402;2024-02-21T09:00:13;11.57;;;4.80;;
76320;SDS011;65132;52.088;5.402;2024-02-21T09:02:42;14.77;;;5.40;;
76320;SDS011;65132;52.088;5.402;2024-02-21T09:05:08;13.25;;;5.90;;
76320;SDS011;65132;52.088;5.402;2024-02-21T09:07:35;13.55;;;5.13;;
76320;SDS011;65132;52.088;5.402;2024-02-21T09:10:02;12.70;;;4.45;;
76320;SDS011;65132;52.088;5.402;2024-02-21T09:12:28;10.65;;;3.95;;
76320;SDS011;65132;52.088;5.402;2024-02-21T09:14:56;10.13;;;4.38;;
76320;SDS011;65132;52.088;5.402;2024-02-21T09:17:25;11.48;;;4.40;;
76320;SDS011;65132;52.088;5.402;2024-02-21T09:19:51;13.98;;;4.28;;
76320;SDS011;65132;52.088;5.402;2024-02-21T09:22:19;9.00;;;3.88;;
76320;SDS011;65132;52.088;5.402;2024-02-21T09:24:45;17.30;;;5.95;;
76320;SDS011;65132;52.088;5.402;2024-02-21T09:27:13;8.35;;;4.13;;
76320;SDS011;65132;52.088;5.402;2024-02-21T09:29:40;11.32;;;4.20;;
76320;SDS011;65132;52.088;5.402;2024-02-21T09:32:06;13.32;;;4.80;;
76320;SDS011;65132;52.088;5.402;2024-02-21T09:34:33;16.83;;;6.22;;
76320;SDS011;65132;52.088;5.402;2024-02-21T09:37:00;14.48;;;4.43;;
76320;SDS011;65132;52.088;5.402;2024-02-21T09:39:26;10.80;;;3.80;;
76320;SDS011;65132;52.088;5.402;2024-02-21T09:41:59;12.48;;;4.72;;
76320;SDS011;65132;52.088;5.402;2024-02-21T09:44:30;10.80;;;4.32;;
76320;SDS011;65132;52.088;5.402;2024-02-21T09:47:10;9.43;;;3.38;;
76320;SDS011;65132;52.088;5.402;2024-02-21T09:49:37;8.05;;;3.53;;
76320;SDS011;65132;52.088;5.402;2024-02-21T09:52:06;6.82;;;2.67;;
76320;SDS011;65132;52.088;5.402;2024-02-21T09:54:33;10.82;;;4.38;;
76320;SDS011;65132;52.088;5.402;2024-02-21T09:57:02;10.57;;;4.07;;
76320;SDS011;65132;52.088;5.402;2024-02-21T09:59:30;10.27;;;4.18;;
76320;SDS011;65132;52.088;5.402;2024-02-21T10:01:56;12.68;;;5.55;;
76320;SDS011;65132;52.088;5.402;2024-02-21T10:04:23;8.65;;;3.58;;
76320;SDS011;65132;52.088;5.402;2024-02-21T10:06:54;8.63;;;3.10;;
76320;SDS011;65132;52.088;5.402;2024-02-21T10:09:23;9.25;;;4.00;;
76320;SDS011;65132;52.088;5.402;2024-02-21T10:11:50;5.97;;;2.33;;
76320;SDS011;65132;52.088;5.402;2024-02-21T10:14:17;7.57;;;2.65;;
76320;SDS011;65132;52.088;5.402;2024-02-21T10:16:44;10.85;;;4.28;;
76320;SDS011;65132;52.088;5.402;2024-02-21T10:19:17;9.80;;;3.03;;
76320;SDS011;65132;52.088;5.402;2024-02-21T10:21:44;8.38;;;3.55;;
76320;SDS011;65132;52.088;5.402;2024-02-21T10:24:11;7.45;;;2.72;;
76320;SDS011;65132;52.088;5.402;2024-02-21T10:26:38;7.72;;;3.63;;
76320;SDS011;65132;52.088;5.402;2024-02-21T10:29:04;10.68;;;3.25;;
76320;SDS011;65132;52.088;5.402;2024-02-21T10:31:33;7.80;;;3.22;;
76320;SDS011;65132;52.088;5.402;2024-02-21T10:34:00;8.02;;;2.80;;
76320;SDS011;65132;52.088;5.402;2024-02-21T10:36:26;9.50;;;3.70;;
76320;SDS011;65132;52.088;5.402;2024-02-21T10:38:53;4.95;;;1.75;;
76320;SDS011;65132;52.088;5.402;2024-02-21T10:41:20;5.50;;;2.80;;
76320;SDS011;65132;52.088;5.402;2024-02-21T10:43:50;6.05;;;2.45;;
76320;SDS011;65132;52.088;5.402;2024-02-21T10:46:18;8.73;;;3.22;;
76320;SDS011;65132;52.088;5.402;2024-02-21T10:48:45;9.13;;;2.95;;
76320;SDS011;65132;52.088;5.402;2024-02-21T10:51:19;7.05;;;3.20;;
76320;SDS011;65132;52.088;5.402;2024-02-21T10:56:30;5.40;;;2.72;;
76320;SDS011;65132;52.088;5.402;2024-02-21T10:58:57;6.45;;;2.58;;
76320;SDS011;65132;52.088;5.402;2024-02-21T11:01:24;8.68;;;3.72;;
76320;SDS011;65132;52.088;5.402;2024-02-21T11:03:53;9.93;;;3.72;;
76320;SDS011;65132;52.088;5.402;2024-02-21T11:06:20;5.50;;;2.85;;
76320;SDS011;65132;52.088;5.402;2024-02-21T11:08:47;6.00;;;3.38;;
76320;SDS011;65132;52.088;5.402;2024-02-21T11:11:14;6.10;;;3.30;;
76320;SDS011;65132;52.088;5.402;2024-02-21T11:14:06;6.43;;;3.15;;
76320;SDS011;65132;52.088;5.402;2024-02-21T11:16:40;7.22;;;3.97;;
76320;SDS011;65132;52.088;5.402;2024-02-21T11:19:19;10.32;;;4.85;;
76320;SDS011;65132;52.088;5.402;2024-02-21T11:21:46;6.90;;;3.75;;
76320;SDS011;65132;52.088;5.402;2024-02-21T11:24:25;7.25;;;3.47;;
76320;SDS011;65132;52.088;5.402;2024-02-21T11:26:51;8.57;;;4.50;;
76320;SDS011;65132;52.088;5.402;2024-02-21T11:29:22;8.75;;;3.20;;
76320;SDS011;65132;52.088;5.402;2024-02-21T11:31:49;9.10;;;3.50;;
76320;SDS011;65132;52.088;5.402;2024-02-21T11:34:17;10.93;;;4.57;;
76320;SDS011;65132;52.088;5.402;2024-02-21T11:36:50;8.45;;;3.63;;
76320;SDS011;65132;52.088;5.402;2024-02-21T11:39:18;7.70;;;2.92;;
76320;SDS011;65132;52.088;5.402;2024-02-21T11:41:44;7.95;;;3.40;;
76320;SDS011;65132;52.088;5.402;2024-02-21T11:44:11;7.60;;;3.17;;
76320;SDS011;65132;52.088;5.402;2024-02-21T11:46:38;11.25;;;4.38;;
76320;SDS011;65132;52.088;5.402;2024-02-21T11:49:05;11.07;;;4.57;;
76320;SDS011;65132;52.088;5.402;2024-02-21T11:51:32;10.10;;;4.57;;
76320;SDS011;65132;52.088;5.402;2024-02-21T11:54:00;7.32;;;3.83;;
76320;SDS011;65132;52.088;5.402;2024-02-21T11:56:28;6.93;;;3.03;;
76320;SDS011;65132;52.088;5.402;2024-02-21T11:58:54;12.80;;;3.90;;
76320;SDS011;65132;52.088;5.402;2024-02-21T12:01:21;6.15;;;2.58;;
76320;SDS011;65132;52.088;5.402;2024-02-21T12:03:47;8.50;;;3.97;;
76320;SDS011;65132;52.088;5.402;2024-02-21T12:06:16;10.57;;;3.92;;
76320;SDS011;65132;52.088;5.402;2024-02-21T12:08:43;8.77;;;4.10;;
76320;SDS011;65132;52.088;5.402;2024-02-21T12:11:22;9.30;;;4.65;;
76320;SDS011;65132;52.088;5.402;2024-02-21T12:14:01;12.07;;;4.53;;
76320;SDS011;65132;52.088;5.402;2024-02-21T12:16:28;7.20;;;3.45;;
76320;SDS011;65132;52.088;5.402;2024-02-21T12:18:54;8.55;;;3.78;;
76320;SDS011;65132;52.088;5.402;2024-02-21T12:21:25;8.52;;;3.72;;
76320;SDS011;65132;52.088;5.402;2024-02-21T12:23:51;9.93;;;3.60;;
76320;SDS011;65132;52.088;5.402;2024-02-21T12:26:17;7.63;;;3.78;;
76320;SDS011;65132;52.088;5.402;2024-02-21T12:28:45;8.40;;;3.88;;
76320;SDS011;65132;52.088;5.402;2024-02-21T12:31:12;8.50;;;3.25;;
76320;SDS011;65132;52.088;5.402;2024-02-21T12:33:38;6.32;;;2.78;;
76320;SDS011;65132;52.088;5.402;2024-02-21T12:36:05;8.48;;;4.47;;
76320;SDS011;65132;52.088;5.402;2024-02-21T12:38:32;7.70;;;3.70;;
76320;SDS011;65132;52.088;5.402;2024-02-21T12:40:58;9.00;;;3.60;;
76320;SDS011;65132;52.088;5.402;2024-02-21T12:43:24;8.73;;;3.28;;
76320;SDS011;65132;52.088;5.402;2024-02-21T12:45:51;7.90;;;3.95;;
76320;SDS011;65132;52.088;5.402;2024-02-21T12:48:17;5.65;;;2.17;;
76320;SDS011;65132;52.088;5.402;2024-02-21T12:50:50;7.28;;;3.70;;
76320;SDS011;65132;52.088;5.402;2024-02-21T12:53:18;9.57;;;3.35;;
76320;SDS011;65132;52.088;5.402;2024-02-21T12:58:20;6.47;;;2.50;;
76320;SDS011;65132;52.088;5.402;2024-02-21T13:00:47;6.78;;;2.75;;
76320;SDS011;65132;52.088;5.402;2024-02-21T13:03:13;6.25;;;2.45;;
76320;SDS011;65132;52.088;5.402;2024-02-21T13:05:40;7.03;;;3.20;;
76320;SDS011;65132;52.088;5.402;2024-02-21T13:08:10;7.55;;;3.17;;
76320;SDS011;65132;52.088;5.402;2024-02-21T13:10:37;5.88;;;3.00;;
76320;SDS011;65132;52.088;5.402;2024-02-21T13:13:04;7.20;;;2.80;;
76320;SDS011;65132;52.088;5.402;2024-02-21T13:15:31;7.15;;;3.45;;
76320;SDS011;65132;52.088;5.402;2024-02-21T13:17:57;6.13;;;2.47;;
76320;SDS011;65132;52.088;5.402;2024-02-21T13:20:25;6.03;;;2.90;;
76320;SDS011;65132;52.088;5.402;2024-02-21T13:22:51;7.72;;;3.22;;
76320;SDS011;65132;52.088;5.402;2024-02-21T13:25:18;5.38;;;2.20;;
76320;SDS011;65132;52.088;5.402;2024-02-21T13:27:44;5.82;;;2.13;;
76320;SDS011;65132;52.088;5.402;2024-02-21T13:30:12;5.55;;;2.97;;
76320;SDS011;65132;52.088;5.402;2024-02-21T13:32:39;7.45;;;3.15;;
76320;SDS011;65132;52.088;5.402;2024-02-21T13:35:05;6.47;;;3.30;;
76320;SDS011;65132;52.088;5.402;2024-02-21T13:37:32;6.07;;;2.83;;
76320;SDS011;65132;52.088;5.402;2024-02-21T13:39:58;3.72;;;1.80;;
76320;SDS011;65132;52.088;5.402;2024-02-21T13:42:24;5.38;;;2.55;;
76320;SDS011;65132;52.088;5.402;2024-02-21T13:44:51;7.35;;;2.38;;
76320;SDS011;65132;52.088;5.402;2024-02-21T13:47:17;8.68;;;3.08;;
76320;SDS011;65132;52.088;5.402;2024-02-21T13:49:43;4.95;;;1.90;;
76320;SDS011;65132;52.088;5.402;2024-02-21T13:52:10;5.90;;;2.13;;
76320;SDS011;65132;52.088;5.402;2024-02-21T13:54:37;4.50;;;2.03;;
76320;SDS011;65132;52.088;5.402;2024-02-21T13:57:04;7.57;;;1.92;;
76320;SDS011;65132;52.088;5.402;2024-02-21T13:59:30;5.00;;;2.58;;
76320;SDS011;65132;52.088;5.402;2024-02-21T14:01:57;7.68;;;2.35;;
76320;SDS011;65132;52.088;5.402;2024-02-21T14:04:23;9.98;;;3.08;;
76320;SDS011;65132;52.088;5.402;2024-02-21T14:06:49;5.22;;;2.67;;
76320;SDS011;65132;52.088;5.402;2024-02-21T14:09:16;3.72;;;1.40;;
76320;SDS011;65132;52.088;5.402;2024-02-21T14:11:42;7.82;;;2.20;;
76320;SDS011;65132;52.088;5.402;2024-02-21T14:14:09;3.28;;;1.40;;
76320;SDS011;65132;52.088;5.402;2024-02-21T14:16:35;6.75;;;2.28;;
76320;SDS011;65132;52.088;5.402;2024-02-21T14:19:02;7.55;;;2.58;;
76320;SDS011;65132;52.088;5.402;2024-02-21T14:21:28;5.32;;;1.90;;
76320;SDS011;65132;52.088;5.402;2024-02-21T14:23:56;7.03;;;2.40;;
76320;SDS011;65132;52.088;5.402;2024-02-21T14:26:23;7.75;;;2.25;;
76320;SDS011;65132;52.088;5.402;2024-02-21T14:28:49;5.55;;;2.08;;
76320;SDS011;65132;52.088;5.402;2024-02-21T14:31:15;3.83;;;1.63;;
76320;SDS011;65132;52.088;5.402;2024-02-21T14:33:42;5.82;;;1.40;;
76320;SDS011;65132;52.088;5.402;2024-02-21T14:36:08;5.00;;;2.10;;
76320;SDS011;65132;52.088;5.402;2024-02-21T14:38:35;8.90;;;1.90;;
76320;SDS011;65132;52.088;5.402;2024-02-21T14:41:01;4.78;;;2.00;;
76320;SDS011;65132;52.088;5.402;2024-02-21T14:43:28;6.35;;;2.22;;
76320;SDS011;65132;52.088;5.402;2024-02-21T14:45:54;7.55;;;2.97;;
76320;SDS011;65132;52.088;5.402;2024-02-21T14:48:21;6.60;;;2.40;;
76320;SDS011;65132;52.088;5.402;2024-02-21T14:50:49;5.13;;;1.88;;
76320;SDS011;65132;52.088;5.402;2024-02-21T14:53:15;6.40;;;2.42;;